Flight Track Log - Related Links

Times and Time Zones

All times are in EST time to prevent confusion due to time zone crossing. See the EJA834P flight status page for this flight to view local times or setup timezone preferences in your user account.

Time Position Orientation Groundspeed Altitude Reporting Facility
EST Latitude Longitude Course Direction KTS MPH feet Rate Location/Type
Sat 07:36:30 PM 30.2625 -97.5883 82° East 227 261 6,300  Level Fort Worth Center
Sat 07:37:32 PM 30.2728 -97.5011 82° East 251 289 8,800 2,410 Climbing Fort Worth Center
Sat 07:38:27 PM 30.3078 -97.4239 62° Northeast 283 326 11,000 2,379 Climbing Houston Center
Sat 07:39:28 PM 30.3886 -97.3861 22° Northeast 305 351 13,400 2,754 Climbing Houston Center
Sat 07:40:29 PM 30.4728 -97.3447 23° Northeast 320 368 16,600 2,732 Climbing Houston Center
Sat 07:41:31 PM 30.5558 -97.3039 23° Northeast 321 369 19,000 2,000 Climbing Houston Center
Sat 07:42:32 PM 30.6294 -97.2308 40° Northeast 349 402 20,700 1,463 Climbing Houston Center
Sat 07:43:34 PM 30.7053 -97.1419 45° Northeast 377 434 22,000 634 Climbing Houston Center
Sat 07:44:35 PM 30.7867 -97.0439 46° Northeast 409 471 22,000  Level Houston Center
Sat 07:45:36 PM 30.8675 -96.9436 47° Northeast 420 483 22,000  Level Houston Center
Sat 07:46:38 PM 30.9700 -96.8236 45° Northeast 441 507 22,000  Level Houston Center
Sat 07:47:39 PM 31.0531 -96.7228 46° Northeast 431 496 22,000  Level Houston Center
Sat 07:48:40 PM 31.1356 -96.6219 46° Northeast 428 493 22,000  Level Houston Center
Sat 07:49:42 PM 31.2244 -96.5347 40° Northeast 414 476 22,000  Level Houston Center
Sat 07:50:43 PM 31.3286 -96.5122 10° North 379 436 22,000  Level Houston Center
Sat 07:51:44 PM 31.4328 -96.4975 North 375 432 22,000 -98 Level Houston Center
Sat 07:52:46 PM 31.5358 -96.4856 North 370 426 21,800 -927 Descending Houston Center
Sat 07:53:47 PM 31.6400 -96.4717 North 372 428 20,100 -1,869 Descending Houston Center
Sat 07:54:48 PM 31.7453 -96.4592 North 376 433 18,000 -1,707 Descending Houston Center
Sat 07:55:50 PM 31.8458 -96.4453 North 363 418 16,600 -1,455 Descending Houston Center
Sat 07:57:00 PM 31.9561 -96.4300 North 347 399 14,800 -1,500 Descending Fort Worth Center
Sat 07:58:02 PM 32.0472 -96.4186 North 334 384 13,300 -1,561 Descending Fort Worth Center
Sat 07:59:03 PM 32.1525 -96.4064 North 320 368 11,600 -1,171 Descending Fort Worth Center
Sat 08:00:05 PM 32.2403 -96.3942 North 310 357 10,900 -683 Descending Fort Worth Center
Sat 08:01:06 PM 32.3175 -96.3844 North 281 323 10,200 -689 Descending Fort Worth Center
Sat 08:02:07 PM 32.3908 -96.3758 North 267 307 9,500 -732 Descending Fort Worth Center
Sat 08:03:09 PM 32.4622 -96.3914 350° North 245 282 8,700 -927 Descending Fort Worth Center
Sat 08:04:10 PM 32.5106 -96.4478 315° West 244 281 7,600 -1,073 Descending Fort Worth Center
Sat 08:05:12 PM 32.5589 -96.5039 316° Northwest 243 280 6,500 -1,073 Descending Fort Worth Center
Sat 08:06:13 PM 32.6058 -96.5619 314° West 243 280 5,400 -1,131 Descending Fort Worth Center
Sat 08:07:14 PM 32.6561 -96.6225 315° West 240 276 4,200 -1,156 Descending Fort Worth Center
Sat 08:08:02 PM 32.6833 -96.6667 306° West 231 266 3,300 -632 Descending Dallas / Fort Worth TRACON
Sat 08:09:08 PM 32.7333 -96.7167 320° Northwest 173 199 3,000 -286 Descending Dallas / Fort Worth TRACON
Sat 08:10:08 PM 32.7667 -96.7500 320° Northwest 152 175 2,700 -632 Descending Dallas / Fort Worth TRACON
Sat 08:11:02 PM 32.8000 -96.7833 320° Northwest 150 173 1,800 -800 Descending Dallas / Fort Worth TRACON
Sat 08:12:08 PM 32.8167 -96.8167 301° West 119 137 1,100 -636 Descending Dallas / Fort Worth TRACON
Sat 08:15:00 PM 32.8333 -96.8500 301° West  Level FlightAware Approximate

Login

Don't have an account? Register now (free) for customized features, flight alerts, and more!